Time;durP1;ratioP1;P1;durP2;ratioP2;P2;SDS_P1;SDS_P2;PMS_P1;PMS_P2;Temp;Humidity;BMP_temperature;BMP_pressure;BME280_temperature;BME280_humidity;BME280_pressure;Samples;Min_cycle;Max_cycle;Signal;HPM_P1;HPM_P2
2022/08/27 00:00:23;;;;;;;;;4.67;3.00;;;;;;;;5099874;27;45347;-72
2022/08/27 00:02:48;;;;;;;;;4.00;4.00;;;;;;;;5100241;27;45768;-72
2022/08/27 00:05:14;;;;;;;;;5.00;4.00;;;;;;;;5089614;27;45271;-71
2022/08/27 00:07:40;;;;;;;;;5.00;4.00;;;;;;;;5080869;28;45351;-71
2022/08/27 00:10:07;;;;;;;;;6.00;4.00;;;;;;;;5080295;28;46289;-71
2022/08/27 00:12:33;;;;;;;;;3.67;3.00;;;;;;;;5080146;28;45378;-71
2022/08/27 00:14:59;;;;;;;;;6.00;5.00;;;;;;;;5083115;27;45177;-71
2022/08/27 00:17:24;;;;;;;;;5.33;4.33;;;;;;;;5100874;27;45392;-71
2022/08/27 00:19:49;;;;;;;;;7.33;6.00;;;;;;;;5100710;27;45416;-71
2022/08/27 00:22:14;;;;;;;;;6.00;6.00;;;;;;;;5100418;27;45352;-71
2022/08/27 00:24:40;;;;;;;;;7.33;4.33;;;;;;;;5100774;27;45429;-71
2022/08/27 00:27:05;;;;;;;;;6.33;5.00;;;;;;;;5100941;27;45413;-71
2022/08/27 00:29:30;;;;;;;;;5.00;5.00;;;;;;;;5099968;27;45416;-71
2022/08/27 00:31:55;;;;;;;;;5.00;4.00;;;;;;;;5099639;27;45402;-71
2022/08/27 00:34:21;;;;;;;;;4.67;4.67;;;;;;;;5100345;27;45294;-71
2022/08/27 00:36:47;;;;;;;;;6.33;4.67;;;;;;;;5100341;27;45365;-71
2022/08/27 00:39:12;;;;;;;;;8.00;6.00;;;;;;;;5082132;27;47351;-71
2022/08/27 00:41:38;;;;;;;;;5.33;5.33;;;;;;;;5100025;27;45476;-72
2022/08/27 00:44:05;;;;;;;;;8.33;5.00;;;;;;;;5100477;27;45375;-71
2022/08/27 00:46:30;;;;;;;;;6.00;6.00;;;;;;;;5100561;27;45169;-71
2022/08/27 00:48:59;;;;;;;;;7.00;4.33;;;;;;;;5100118;27;45421;-71
2022/08/27 00:51:24;;;;;;;;;7.67;5.00;;;;;;;;5099460;27;45352;-72
2022/08/27 00:53:50;;;;;;;;;10.67;7.00;;;;;;;;5100208;27;45367;-71
2022/08/27 00:56:18;;;;;;;;;6.00;5.00;;;;;;;;5100446;27;45276;-71
2022/08/27 00:58:47;;;;;;;;;4.00;4.00;;;;;;;;5100120;27;45688;-71
2022/08/27 01:01:14;;;;;;;;;4.33;4.33;;;;;;;;5099955;27;45216;-71
2022/08/27 01:03:43;;;;;;;;;6.00;6.00;;;;;;;;5100251;27;45448;-71
2022/08/27 01:06:10;;;;;;;;;5.33;5.33;;;;;;;;5099190;27;45249;-72
2022/08/27 01:08:36;;;;;;;;;8.33;5.67;;;;;;;;5099848;27;45598;-71
2022/08/27 01:11:03;;;;;;;;;5.33;4.00;;;;;;;;5099996;27;45344;-71
2022/08/27 01:13:30;;;;;;;;;5.67;4.33;;;;;;;;5099877;27;45221;-71
2022/08/27 01:15:57;;;;;;;;;8.67;5.33;;;;;;;;5100102;27;45469;-71
2022/08/27 01:18:24;;;;;;;;;6.00;4.00;;;;;;;;5079134;27;46175;-71
2022/08/27 01:21:04;;;;;;;;;6.00;6.00;;;;;;;;5079243;28;45198;-72
2022/08/27 01:23:48;;;;;;;;;6.00;6.00;;;;;;;;5078396;28;46042;-71
2022/08/27 01:26:14;;;;;;;;;5.00;5.00;;;;;;;;5079455;28;45456;-71
2022/08/27 01:28:40;;;;;;;;;6.00;6.00;;;;;;;;5079009;28;45684;-71
2022/08/27 01:31:06;;;;;;;;;7.00;5.67;;;;;;;;5079119;28;45328;-71
2022/08/27 01:33:32;;;;;;;;;4.67;4.67;;;;;;;;5079150;28;45312;-71
2022/08/27 01:35:57;;;;;;;;;202.67;175.67;;;;;;;;5079441;28;45289;-71
2022/08/27 01:38:23;;;;;;;;;53.50;44.00;;;;;;;;5078021;28;46510;-71
2022/08/27 01:40:49;;;;;;;;;21.67;19.67;;;;;;;;5079131;28;45493;-71
2022/08/27 01:43:14;;;;;;;;;12.67;11.33;;;;;;;;5078961;28;45187;-71
2022/08/27 01:45:43;;;;;;;;;10.67;8.00;;;;;;;;5079236;28;45223;-71
2022/08/27 01:48:08;;;;;;;;;12.00;11.00;;;;;;;;5077657;28;47441;-71
2022/08/27 01:50:35;;;;;;;;;11.67;9.00;;;;;;;;5078848;28;45367;-71
2022/08/27 01:53:02;;;;;;;;;8.67;8.00;;;;;;;;5079044;28;45302;-71
2022/08/27 01:55:27;;;;;;;;;9.00;9.00;;;;;;;;5077970;28;45324;-71
2022/08/27 01:57:53;;;;;;;;;8.67;7.00;;;;;;;;5078526;28;45504;-71
2022/08/27 02:00:23;;;;;;;;;9.67;6.33;;;;;;;;5078897;28;45770;-71
2022/08/27 02:02:48;;;;;;;;;7.00;5.00;;;;;;;;5078944;28;45401;-71
2022/08/27 02:05:14;;;;;;;;;9.00;6.67;;;;;;;;5079043;28;45555;-71
2022/08/27 02:07:50;;;;;;;;;11.33;8.00;;;;;;;;5091602;27;45401;-72
2022/08/27 02:10:18;;;;;;;;;9.00;6.33;;;;;;;;5094931;27;45342;-72
2022/08/27 02:12:44;;;;;;;;;11.00;6.00;;;;;;;;5084015;27;45536;-72
2022/08/27 02:15:09;;;;;;;;;8.33;7.00;;;;;;;;5074796;28;45394;-72
2022/08/27 02:17:35;;;;;;;;;7.33;6.33;;;;;;;;5074339;28;47184;-72
2022/08/27 02:20:00;;;;;;;;;5.00;3.00;;;;;;;;5074484;28;45367;-72
2022/08/27 02:22:26;;;;;;;;;8.00;7.00;;;;;;;;5074534;28;45413;-72
2022/08/27 02:24:51;;;;;;;;;7.67;7.33;;;;;;;;5074661;28;45288;-72
2022/08/27 02:27:17;;;;;;;;;7.67;6.67;;;;;;;;5074287;28;46884;-72
2022/08/27 02:29:42;;;;;;;;;5.67;5.00;;;;;;;;5073603;27;45549;-72
2022/08/27 02:32:08;;;;;;;;;10.67;7.00;;;;;;;;5074274;28;45327;-72
2022/08/27 02:34:33;;;;;;;;;9.33;6.00;;;;;;;;5074465;28;45451;-72
2022/08/27 02:36:59;;;;;;;;;11.33;7.00;;;;;;;;5074141;28;45733;-72
2022/08/27 02:39:24;;;;;;;;;7.33;6.67;;;;;;;;5074175;28;45412;-72
2022/08/27 02:41:49;;;;;;;;;7.00;6.33;;;;;;;;5074264;28;45175;-72
2022/08/27 02:44:15;;;;;;;;;11.67;6.33;;;;;;;;5074158;28;45336;-72
2022/08/27 02:46:41;;;;;;;;;7.33;6.33;;;;;;;;5073603;27;46381;-72
2022/08/27 02:49:06;;;;;;;;;10.33;7.00;;;;;;;;5074019;28;45450;-72
2022/08/27 02:51:32;;;;;;;;;9.33;8.00;;;;;;;;5074050;28;45217;-72
2022/08/27 02:53:57;;;;;;;;;8.33;7.33;;;;;;;;5074103;28;45422;-72
2022/08/27 02:56:22;;;;;;;;;7.00;6.67;;;;;;;;5073627;28;46625;-72
2022/08/27 02:58:47;;;;;;;;;8.67;7.00;;;;;;;;5073624;28;45372;-72
2022/08/27 03:01:12;;;;;;;;;7.00;7.00;;;;;;;;5074107;28;45195;-72
2022/08/27 03:03:38;;;;;;;;;10.33;6.33;;;;;;;;5073498;27;46036;-72
2022/08/27 03:06:03;;;;;;;;;8.33;6.33;;;;;;;;5079061;27;46275;-72
2022/08/27 03:08:28;;;;;;;;;8.00;6.00;;;;;;;;5094245;27;45316;-72
2022/08/27 03:10:55;;;;;;;;;7.33;5.33;;;;;;;;5094168;27;45458;-72
2022/08/27 03:13:20;;;;;;;;;10.33;8.33;;;;;;;;5094093;27;45463;-73
2022/08/27 03:15:46;;;;;;;;;17.67;13.00;;;;;;;;5093752;27;46445;-72
2022/08/27 03:18:17;;;;;;;;;8.00;7.67;;;;;;;;5085839;27;45335;-72
2022/08/27 03:20:43;;;;;;;;;6.33;6.33;;;;;;;;5089697;27;45159;-72
2022/08/27 03:23:09;;;;;;;;;7.00;5.33;;;;;;;;5100886;27;45380;-72
2022/08/27 03:25:35;;;;;;;;;12.00;7.00;;;;;;;;5100381;27;45497;-72
2022/08/27 03:28:00;;;;;;;;;7.67;6.33;;;;;;;;5100530;27;45447;-72
2022/08/27 03:30:25;;;;;;;;;10.00;6.00;;;;;;;;5100527;27;45363;-72
2022/08/27 03:32:51;;;;;;;;;8.00;8.00;;;;;;;;5100836;27;45392;-70
2022/08/27 03:35:18;;;;;;;;;7.00;7.00;;;;;;;;5100428;27;45684;-70
2022/08/27 03:37:43;;;;;;;;;9.00;8.33;;;;;;;;5098961;27;45478;-69
2022/08/27 03:40:08;;;;;;;;;11.00;9.00;;;;;;;;5100524;27;45326;-69
2022/08/27 03:42:34;;;;;;;;;10.00;7.67;;;;;;;;5100374;27;45429;-69
2022/08/27 03:45:00;;;;;;;;;9.67;7.33;;;;;;;;5099921;27;46119;-70
2022/08/27 03:47:25;;;;;;;;;8.33;7.67;;;;;;;;5100019;27;45278;-70
2022/08/27 03:49:50;;;;;;;;;8.33;6.00;;;;;;;;5100448;27;45452;-70
2022/08/27 03:52:15;;;;;;;;;10.33;8.33;;;;;;;;5099323;27;45459;-70
2022/08/27 03:54:41;;;;;;;;;11.33;8.67;;;;;;;;5100016;27;47237;-69
2022/08/27 03:57:06;;;;;;;;;10.33;9.00;;;;;;;;5100274;27;45317;-69
2022/08/27 03:59:32;;;;;;;;;11.00;9.67;;;;;;;;5100174;27;45351;-69
2022/08/27 04:01:57;;;;;;;;;10.67;10.67;;;;;;;;5100439;27;45335;-69
2022/08/27 04:04:23;;;;;;;;;11.67;11.67;;;;;;;;5099881;27;45480;-69
2022/08/27 04:06:48;;;;;;;;;14.00;10.33;;;;;;;;5099758;27;45810;-69
2022/08/27 04:09:13;;;;;;;;;11.33;11.33;;;;;;;;5094053;27;45308;-69
2022/08/27 04:11:39;;;;;;;;;13.33;11.00;;;;;;;;5079758;28;45383;-69
2022/08/27 04:14:05;;;;;;;;;16.33;12.00;;;;;;;;5079162;28;46327;-69
2022/08/27 04:16:31;;;;;;;;;12.00;11.00;;;;;;;;5079399;27;45379;-69
2022/08/27 04:18:56;;;;;;;;;15.00;12.33;;;;;;;;5079339;27;45308;-69
2022/08/27 04:21:22;;;;;;;;;19.33;13.67;;;;;;;;5079446;27;45448;-70
2022/08/27 04:23:47;;;;;;;;;15.00;12.00;;;;;;;;5079080;28;46031;-69
2022/08/27 04:26:13;;;;;;;;;14.67;12.67;;;;;;;;5087092;27;45343;-72
2022/08/27 04:28:38;;;;;;;;;16.33;12.33;;;;;;;;5099436;27;45448;-72
2022/08/27 04:31:04;;;;;;;;;14.67;14.00;;;;;;;;5098854;27;45392;-71
2022/08/27 04:33:31;;;;;;;;;19.67;15.33;;;;;;;;5099565;27;45489;-71
2022/08/27 04:36:00;;;;;;;;;15.00;13.00;;;;;;;;5099423;27;45318;-71
2022/08/27 04:38:25;;;;;;;;;13.33;12.33;;;;;;;;5099449;27;45360;-72
2022/08/27 04:43:34;;;;;;;;;15.67;13.00;;;;;;;;5081454;27;45265;-72
2022/08/27 04:45:59;;;;;;;;;17.67;17.33;;;;;;;;5078597;27;45299;-72
2022/08/27 04:48:24;;;;;;;;;12.00;12.00;;;;;;;;5079108;28;45334;-72
2022/08/27 04:50:49;;;;;;;;;15.00;13.33;;;;;;;;5079114;27;45247;-72
2022/08/27 04:53:15;;;;;;;;;17.33;13.33;;;;;;;;5078752;28;46411;-72
2022/08/27 04:55:41;;;;;;;;;15.67;14.33;;;;;;;;5078785;27;45404;-72
2022/08/27 04:58:07;;;;;;;;;16.00;14.00;;;;;;;;5089219;27;45316;-72
2022/08/27 05:00:32;;;;;;;;;16.00;12.00;;;;;;;;5099122;27;45367;-72
2022/08/27 05:02:57;;;;;;;;;22.00;16.67;;;;;;;;5099025;27;45997;-72
2022/08/27 05:05:23;;;;;;;;;17.00;13.33;;;;;;;;5099123;27;45434;-72
2022/08/27 05:07:48;;;;;;;;;15.67;13.33;;;;;;;;5098882;27;45230;-72
2022/08/27 05:10:13;;;;;;;;;16.33;14.00;;;;;;;;5099233;27;45434;-72
2022/08/27 05:12:38;;;;;;;;;15.67;14.00;;;;;;;;5098889;27;45421;-72
2022/08/27 05:15:04;;;;;;;;;14.00;14.00;;;;;;;;5082062;27;45278;-72
2022/08/27 05:17:31;;;;;;;;;14.33;13.00;;;;;;;;5078719;27;45318;-72
2022/08/27 05:19:56;;;;;;;;;12.67;11.00;;;;;;;;5078630;28;45597;-72
2022/08/27 05:22:22;;;;;;;;;16.67;14.33;;;;;;;;5078249;28;45625;-72
2022/08/27 05:24:47;;;;;;;;;17.00;14.67;;;;;;;;5078261;28;45518;-71
2022/08/27 05:27:12;;;;;;;;;14.00;13.33;;;;;;;;5078342;28;45531;-72
2022/08/27 05:29:37;;;;;;;;;14.67;13.67;;;;;;;;5078574;28;45302;-72
2022/08/27 05:32:03;;;;;;;;;20.00;16.33;;;;;;;;5091303;27;46534;-71
2022/08/27 05:34:29;;;;;;;;;21.33;14.33;;;;;;;;5098570;27;45398;-71
2022/08/27 05:36:54;;;;;;;;;16.67;16.00;;;;;;;;5098710;27;45409;-71
2022/08/27 05:39:20;;;;;;;;;17.67;15.00;;;;;;;;5098782;27;45329;-71
2022/08/27 05:41:45;;;;;;;;;19.00;15.00;;;;;;;;5098119;27;47127;-71
2022/08/27 05:44:10;;;;;;;;;16.33;14.00;;;;;;;;5098526;27;45153;-72
2022/08/27 05:46:37;;;;;;;;;18.67;15.00;;;;;;;;5098349;27;45382;-72
2022/08/27 05:49:02;;;;;;;;;20.00;14.00;;;;;;;;5087169;27;45344;-72
2022/08/27 05:51:29;;;;;;;;;14.33;13.00;;;;;;;;5077741;27;46010;-72
2022/08/27 05:54:00;;;;;;;;;22.00;16.67;;;;;;;;5077903;28;45416;-72
2022/08/27 05:56:26;;;;;;;;;23.00;18.00;;;;;;;;5077967;28;45269;-72
2022/08/27 06:01:40;;;;;;;;;18.33;15.33;;;;;;;;4994889;28;45749;-71
2022/08/27 06:04:05;;;;;;;;;21.67;14.67;;;;;;;;4998529;28;45388;-71
2022/08/27 06:06:35;;;;;;;;;19.00;15.33;;;;;;;;5014866;28;45545;-71
2022/08/27 06:09:00;;;;;;;;;15.00;15.00;;;;;;;;5015547;28;45262;-71
2022/08/27 06:11:26;;;;;;;;;17.00;15.00;;;;;;;;5015169;28;46391;-72
2022/08/27 06:13:51;;;;;;;;;17.00;14.67;;;;;;;;5014886;28;45401;-71
2022/08/27 06:16:17;;;;;;;;;20.00;18.67;;;;;;;;5015267;28;45482;-71
2022/08/27 06:18:43;;;;;;;;;20.67;18.67;;;;;;;;5015276;28;45377;-71
2022/08/27 06:21:09;;;;;;;;;20.00;17.67;;;;;;;;5014181;28;45315;-71
2022/08/27 06:23:34;;;;;;;;;21.33;17.33;;;;;;;;5015079;28;45383;-72
2022/08/27 06:26:00;;;;;;;;;27.00;24.67;;;;;;;;5014881;28;45494;-72
2022/08/27 06:28:30;;;;;;;;;27.00;18.33;;;;;;;;5015469;28;45330;-72
2022/08/27 06:31:02;;;;;;;;;16.67;15.33;;;;;;;;5014651;28;46570;-72
2022/08/27 06:33:27;;;;;;;;;19.33;17.33;;;;;;;;5014286;28;45412;-72
2022/08/27 06:35:53;;;;;;;;;19.33;18.67;;;;;;;;5014930;28;45275;-70
2022/08/27 06:38:18;;;;;;;;;24.00;21.00;;;;;;;;5035142;27;45299;-70
2022/08/27 06:40:43;;;;;;;;;17.00;17.00;;;;;;;;5096198;27;45334;-71
2022/08/27 06:43:08;;;;;;;;;16.00;15.33;;;;;;;;5096741;27;45442;-71
2022/08/27 06:45:36;;;;;;;;;17.33;17.00;;;;;;;;5096831;27;45402;-71
2022/08/27 06:48:01;;;;;;;;;22.67;18.00;;;;;;;;5097288;27;45461;-71
2022/08/27 06:50:27;;;;;;;;;20.33;15.67;;;;;;;;5096602;27;46124;-71
2022/08/27 06:52:52;;;;;;;;;22.00;17.67;;;;;;;;5098360;27;45438;-74
2022/08/27 06:55:17;;;;;;;;;17.67;15.00;;;;;;;;5090793;27;45332;-73
2022/08/27 06:57:43;;;;;;;;;19.00;16.67;;;;;;;;5080930;28;45348;-74
2022/08/27 07:00:08;;;;;;;;;19.67;17.00;;;;;;;;5080355;27;46377;-73
2022/08/27 07:02:34;;;;;;;;;21.67;17.00;;;;;;;;5079924;28;45479;-74
2022/08/27 07:04:59;;;;;;;;;21.33;17.00;;;;;;;;5080275;27;45448;-73
2022/08/27 07:07:24;;;;;;;;;23.00;16.33;;;;;;;;5080507;28;45553;-73
2022/08/27 07:09:50;;;;;;;;;16.67;13.67;;;;;;;;5082592;27;46614;-72
2022/08/27 07:12:15;;;;;;;;;14.00;14.00;;;;;;;;5100831;27;45289;-72
2022/08/27 07:14:40;;;;;;;;;19.33;16.00;;;;;;;;5100921;27;45277;-72
2022/08/27 07:17:07;;;;;;;;;16.33;14.00;;;;;;;;5100969;27;45208;-72
2022/08/27 07:19:32;;;;;;;;;20.00;15.33;;;;;;;;5100695;27;46718;-72
2022/08/27 07:21:58;;;;;;;;;14.00;14.00;;;;;;;;5100620;27;45270;-72
2022/08/27 07:24:23;;;;;;;;;17.33;14.67;;;;;;;;5100818;27;45397;-72
2022/08/27 07:26:48;;;;;;;;;21.33;20.67;;;;;;;;5100807;27;45449;-71
2022/08/27 07:29:14;;;;;;;;;15.33;13.67;;;;;;;;5082230;27;46512;-70
2022/08/27 07:31:40;;;;;;;;;17.00;15.00;;;;;;;;5079937;28;45317;-69
2022/08/27 07:34:05;;;;;;;;;21.00;15.33;;;;;;;;5061664;28;45320;-69
2022/08/27 07:36:31;;;;;;;;;6.67;5.00;;;;;;;;5080095;27;45456;-69
2022/08/27 07:38:57;;;;;;;;;10.00;8.33;;;;;;;;5079760;28;45446;-69
2022/08/27 07:41:22;;;;;;;;;10.67;8.00;;;;;;;;5079998;28;45426;-68
2022/08/27 07:46:32;;;;;;;;;12.00;9.67;;;;;;;;5079407;27;45406;-69
2022/08/27 07:48:58;;;;;;;;;8.00;8.00;;;;;;;;5079522;28;45704;-69
2022/08/27 07:51:24;;;;;;;;;4.67;4.00;;;;;;;;5079438;28;45528;-69
2022/08/27 07:53:49;;;;;;;;;4.67;4.67;;;;;;;;5079709;28;45314;-68
2022/08/27 07:56:15;;;;;;;;;4.00;4.00;;;;;;;;5079680;28;45394;-70
2022/08/27 07:58:41;;;;;;;;;9.33;8.00;;;;;;;;5079578;27;46230;-69
2022/08/27 08:01:07;;;;;;;;;7.33;4.67;;;;;;;;5087545;27;45293;-69
2022/08/27 08:03:33;;;;;;;;;6.00;4.33;;;;;;;;5100143;27;45348;-69
2022/08/27 08:06:02;;;;;;;;;8.00;7.00;;;;;;;;5100057;27;45224;-69
2022/08/27 08:08:28;;;;;;;;;3.33;3.33;;;;;;;;5099847;27;47547;-69
2022/08/27 08:10:55;;;;;;;;;4.00;4.00;;;;;;;;5099899;27;45353;-69
2022/08/27 08:13:20;;;;;;;;;7.67;4.67;;;;;;;;5100091;27;45312;-69
2022/08/27 08:15:46;;;;;;;;;8.67;7.67;;;;;;;;5100148;27;45247;-69
2022/08/27 08:18:11;;;;;;;;;5.67;4.67;;;;;;;;5080035;27;45519;-70
2022/08/27 08:20:37;;;;;;;;;4.33;4.33;;;;;;;;5079501;27;45769;-70
2022/08/27 08:23:02;;;;;;;;;5.67;5.00;;;;;;;;5079312;28;45282;-69
2022/08/27 08:25:28;;;;;;;;;5.00;5.00;;;;;;;;5079606;27;45406;-69
2022/08/27 08:27:53;;;;;;;;;5.00;5.00;;;;;;;;5079177;28;45528;-70
2022/08/27 08:30:18;;;;;;;;;3.00;1.67;;;;;;;;5079210;27;45552;-70
2022/08/27 08:32:43;;;;;;;;;4.67;4.00;;;;;;;;5078933;27;45728;-69
2022/08/27 08:35:09;;;;;;;;;5.67;4.00;;;;;;;;5079479;27;45506;-69
2022/08/27 08:37:34;;;;;;;;;7.00;6.67;;;;;;;;5078992;28;45638;-70
2022/08/27 08:39:59;;;;;;;;;6.67;5.00;;;;;;;;5079272;28;45191;-70
2022/08/27 08:42:44;;;;;;;;;8.00;5.00;;;;;;;;5079085;28;45168;-70
2022/08/27 08:45:12;;;;;;;;;12.00;12.00;;;;;;;;5079040;27;45309;-70
2022/08/27 08:47:44;;;;;;;;;4.67;3.67;;;;;;;;5078648;28;46173;-70
2022/08/27 08:50:13;;;;;;;;;3.50;3.50;;;;;;;;5088955;27;45401;-69
2022/08/27 08:52:50;;;;;;;;;4.00;3.00;;;;;;;;5099422;27;45375;-70
2022/08/27 08:55:34;;;;;;;;;7.00;5.33;;;;;;;;5099468;27;45296;-69
2022/08/27 08:57:59;;;;;;;;;5.00;4.00;;;;;;;;5099159;27;46061;-69
2022/08/27 09:00:25;;;;;;;;;3.67;3.67;;;;;;;;5099106;27;45346;-70
2022/08/27 09:02:53;;;;;;;;;3.00;3.00;;;;;;;;5099165;27;45277;-70
2022/08/27 09:05:19;;;;;;;;;4.00;2.00;;;;;;;;5098300;27;45372;-69
2022/08/27 09:07:51;;;;;;;;;3.67;2.00;;;;;;;;5059792;28;46458;-69
2022/08/27 09:10:36;;;;;;;;;2.33;1.33;;;;;;;;5078453;28;45218;-70
2022/08/27 09:13:02;;;;;;;;;2.00;2.00;;;;;;;;5078410;28;45261;-70
2022/08/27 09:15:30;;;;;;;;;4.00;4.00;;;;;;;;5078153;28;45174;-69
2022/08/27 09:18:10;;;;;;;;;5.33;4.33;;;;;;;;5077939;28;46852;-70
2022/08/27 09:20:36;;;;;;;;;5.00;3.00;;;;;;;;5078405;28;45415;-70
2022/08/27 09:23:20;;;;;;;;;4.00;4.00;;;;;;;;5084588;27;45236;-69
2022/08/27 09:25:45;;;;;;;;;6.00;4.00;;;;;;;;5098747;27;45546;-70
2022/08/27 09:31:07;;;;;;;;;5.33;4.00;;;;;;;;5098681;27;45182;-70
2022/08/27 09:33:33;;;;;;;;;6.00;4.00;;;;;;;;5098673;27;45236;-69
2022/08/27 09:36:02;;;;;;;;;7.33;6.00;;;;;;;;5098937;27;45398;-70
2022/08/27 09:38:29;;;;;;;;;6.00;6.00;;;;;;;;5098274;27;46481;-70
2022/08/27 09:40:56;;;;;;;;;7.33;4.67;;;;;;;;5088299;27;45451;-70
2022/08/27 09:43:23;;;;;;;;;5.33;5.33;;;;;;;;5078053;28;45433;-70
2022/08/27 09:45:51;;;;;;;;;6.33;6.00;;;;;;;;5078128;28;45364;-70
2022/08/27 09:48:26;;;;;;;;;5.00;5.00;;;;;;;;5077875;28;45459;-69
2022/08/27 09:51:05;;;;;;;;;6.33;5.00;;;;;;;;5077898;28;45303;-70
2022/08/27 09:53:34;;;;;;;;;4.67;4.67;;;;;;;;5077941;28;45293;-69
2022/08/27 09:56:01;;;;;;;;;5.33;3.67;;;;;;;;5086737;27;45239;-69
2022/08/27 09:58:31;;;;;;;;;6.00;4.67;;;;;;;;5098158;27;46922;-69
2022/08/27 10:01:15;;;;;;;;;3.67;2.00;;;;;;;;5079858;27;45441;-70
2022/08/27 10:03:42;;;;;;;;;4.00;3.67;;;;;;;;5098157;27;45445;-70
2022/08/27 10:06:08;;;;;;;;;3.00;3.00;;;;;;;;5098178;27;45519;-70
2022/08/27 10:08:45;;;;;;;;;2.67;1.67;;;;;;;;5098036;27;46302;-70
2022/08/27 10:11:11;;;;;;;;;2.33;1.67;;;;;;;;5097285;27;45438;-70
2022/08/27 10:13:42;;;;;;;;;1.33;0.67;;;;;;;;5098033;27;45377;-71
2022/08/27 10:16:25;;;;;;;;;2.67;1.33;;;;;;;;5098459;27;45360;-70
2022/08/27 10:19:09;;;;;;;;;3.00;1.67;;;;;;;;5097711;27;46133;-70
2022/08/27 10:21:43;;;;;;;;;2.00;2.00;;;;;;;;5097849;27;45494;-71
2022/08/27 10:24:27;;;;;;;;;2.00;2.00;;;;;;;;5097991;27;45314;-71
2022/08/27 10:27:08;;;;;;;;;3.00;1.33;;;;;;;;5083690;27;45238;-71
2022/08/27 10:29:46;;;;;;;;;3.00;1.67;;;;;;;;5080691;28;46131;-71
2022/08/27 10:32:30;;;;;;;;;3.33;2.00;;;;;;;;5080970;28;45297;-70
2022/08/27 10:35:04;;;;;;;;;2.33;2.00;;;;;;;;5081028;28;45420;-70
2022/08/27 10:37:32;;;;;;;;;3.00;1.33;;;;;;;;5081104;28;45298;-70
2022/08/27 10:40:15;;;;;;;;;3.67;3.67;;;;;;;;5080756;27;45427;-68
2022/08/27 10:42:40;;;;;;;;;2.33;1.67;;;;;;;;5080788;28;45334;-68
2022/08/27 10:45:09;;;;;;;;;2.33;2.33;;;;;;;;5080615;27;45455;-68
2022/08/27 10:47:52;;;;;;;;;2.00;2.00;;;;;;;;5080802;28;45538;-68
2022/08/27 10:50:26;;;;;;;;;1.00;1.00;;;;;;;;5080493;28;46448;-68
2022/08/27 10:53:04;;;;;;;;;3.33;2.00;;;;;;;;5080721;28;45474;-68
2022/08/27 10:55:32;;;;;;;;;1.00;1.00;;;;;;;;5080817;28;45301;-68
2022/08/27 10:58:15;;;;;;;;;2.33;2.33;;;;;;;;5080946;28;45312;-68
2022/08/27 11:00:46;;;;;;;;;2.33;2.33;;;;;;;;5086275;27;46638;-68
2022/08/27 11:03:19;;;;;;;;;4.67;1.67;;;;;;;;5100752;27;45167;-68
2022/08/27 11:05:46;;;;;;;;;3.00;2.00;;;;;;;;5100969;27;45458;-67
2022/08/27 11:08:14;;;;;;;;;3.67;3.67;;;;;;;;5101009;27;45412;-67
2022/08/27 11:10:45;;;;;;;;;2.00;2.00;;;;;;;;5100781;27;45316;-68
2022/08/27 11:13:15;;;;;;;;;2.00;2.00;;;;;;;;5100889;27;45316;-68
2022/08/27 11:15:43;;;;;;;;;3.00;3.00;;;;;;;;5095241;27;45587;-68
2022/08/27 11:18:08;;;;;;;;;2.00;2.00;;;;;;;;5080370;27;45290;-68
2022/08/27 11:20:39;;;;;;;;;2.67;2.67;;;;;;;;5080274;28;46198;-67
2022/08/27 11:23:08;;;;;;;;;1.33;1.33;;;;;;;;5080312;27;45515;-68
2022/08/27 11:25:49;;;;;;;;;4.00;4.00;;;;;;;;5080313;27;45402;-70
2022/08/27 11:28:16;;;;;;;;;7.67;3.33;;;;;;;;5080362;28;45508;-69
2022/08/27 11:30:47;;;;;;;;;2.00;2.00;;;;;;;;5080118;28;45519;-69
2022/08/27 11:33:31;;;;;;;;;3.67;3.67;;;;;;;;5079483;27;45319;-70
2022/08/27 11:36:03;;;;;;;;;4.00;4.00;;;;;;;;5080250;28;45411;-69
2022/08/27 11:38:30;;;;;;;;;4.33;4.00;;;;;;;;5079806;28;45165;-69
2022/08/27 11:41:24;;;;;;;;;3.00;3.00;;;;;;;;5079888;28;45540;-70
2022/08/27 11:43:50;;;;;;;;;1.33;1.33;;;;;;;;5079913;28;45451;-69
2022/08/27 11:46:23;;;;;;;;;5.00;3.67;;;;;;;;5079946;28;45291;-69
2022/08/27 11:48:56;;;;;;;;;3.33;2.00;;;;;;;;5080101;28;45253;-69
2022/08/27 11:51:28;;;;;;;;;10.33;7.67;;;;;;;;5089578;27;45598;-69
2022/08/27 11:53:55;;;;;;;;;7.00;3.67;;;;;;;;5099954;27;45445;-70
2022/08/27 11:56:29;;;;;;;;;4.00;3.33;;;;;;;;5100247;27;45464;-69
2022/08/27 11:58:55;;;;;;;;;4.67;3.00;;;;;;;;5100494;27;45365;-69
2022/08/27 12:01:27;;;;;;;;;2.67;2.00;;;;;;;;5099937;27;46549;-70
2022/08/27 12:04:19;;;;;;;;;3.00;3.00;;;;;;;;5100128;27;45356;-70
2022/08/27 12:06:49;;;;;;;;;6.00;3.00;;;;;;;;5095614;27;45240;-70
2022/08/27 12:09:20;;;;;;;;;4.00;4.00;;;;;;;;5099334;27;45456;-69
2022/08/27 12:11:57;;;;;;;;;2.00;2.00;;;;;;;;5099841;27;45327;-69
2022/08/27 12:14:26;;;;;;;;;3.00;2.00;;;;;;;;5099661;27;45280;-69
2022/08/27 12:17:03;;;;;;;;;4.00;4.00;;;;;;;;5100045;27;45307;-71
2022/08/27 12:19:46;;;;;;;;;4.00;2.67;;;;;;;;5100114;27;45558;-70
2022/08/27 12:22:30;;;;;;;;;3.67;3.33;;;;;;;;5099784;27;46250;-69
2022/08/27 12:24:57;;;;;;;;;1.33;1.33;;;;;;;;5094959;27;45650;-69
2022/08/27 12:27:30;;;;;;;;;2.67;1.33;;;;;;;;5079134;28;45304;-70
2022/08/27 12:30:03;;;;;;;;;3.00;2.00;;;;;;;;5079620;28;45443;-69
2022/08/27 12:32:30;;;;;;;;;2.67;2.67;;;;;;;;5079051;28;46707;-70
2022/08/27 12:35:08;;;;;;;;;2.00;2.00;;;;;;;;5078984;28;45395;-70
2022/08/27 12:37:35;;;;;;;;;3.00;3.00;;;;;;;;5079113;28;45431;-69
2022/08/27 12:40:05;;;;;;;;;3.67;2.33;;;;;;;;5079579;28;45256;-70
2022/08/27 12:42:31;;;;;;;;;6.00;2.00;;;;;;;;5078457;27;46392;-70
2022/08/27 12:44:56;;;;;;;;;4.00;4.00;;;;;;;;5079023;28;45257;-69
2022/08/27 12:47:22;;;;;;;;;2.33;2.33;;;;;;;;5079053;28;45351;-70
2022/08/27 12:49:50;;;;;;;;;3.67;2.67;;;;;;;;5078633;28;45388;-69
2022/08/27 12:52:19;;;;;;;;;2.33;2.33;;;;;;;;5078275;28;46589;-69
2022/08/27 12:55:03;;;;;;;;;6.67;3.00;;;;;;;;5078771;28;45315;-70
2022/08/27 12:57:37;;;;;;;;;2.67;2.33;;;;;;;;5078544;27;45493;-68
2022/08/27 13:00:11;;;;;;;;;3.00;1.00;;;;;;;;5078993;28;45408;-70
2022/08/27 13:02:36;;;;;;;;;2.00;2.00;;;;;;;;5078624;28;46029;-70
2022/08/27 13:05:04;;;;;;;;;2.00;2.00;;;;;;;;5078422;28;45770;-70
2022/08/27 13:07:31;;;;;;;;;2.00;1.33;;;;;;;;5078503;28;45438;-69
2022/08/27 13:10:06;;;;;;;;;1.00;1.00;;;;;;;;5078943;28;45380;-69
2022/08/27 13:12:32;;;;;;;;;2.33;2.33;;;;;;;;5078004;27;46603;-69
2022/08/27 13:15:04;;;;;;;;;3.00;3.00;;;;;;;;5098639;27;45385;-69
2022/08/27 13:17:30;;;;;;;;;4.00;2.00;;;;;;;;5099184;27;45339;-69
2022/08/27 13:19:57;;;;;;;;;2.00;2.00;;;;;;;;5098993;27;45393;-70
2022/08/27 13:22:23;;;;;;;;;6.00;3.00;;;;;;;;5098591;27;46731;-70
2022/08/27 13:24:50;;;;;;;;;2.67;1.00;;;;;;;;5098789;27;45326;-70
2022/08/27 13:27:21;;;;;;;;;2.00;2.00;;;;;;;;5098781;27;45756;-70
2022/08/27 13:29:47;;;;;;;;;5.67;2.33;;;;;;;;5082649;27;45243;-69
2022/08/27 13:32:13;;;;;;;;;3.00;1.67;;;;;;;;5078006;28;46570;-69
2022/08/27 13:34:39;;;;;;;;;2.00;2.00;;;;;;;;5078149;28;45266;-69
2022/08/27 13:37:25;;;;;;;;;3.67;2.67;;;;;;;;5078233;27;45217;-69
2022/08/27 13:39:51;;;;;;;;;4.00;2.00;;;;;;;;5077751;28;45245;-70
2022/08/27 13:42:16;;;;;;;;;1.67;1.67;;;;;;;;5077911;28;45478;-69
2022/08/27 13:44:42;;;;;;;;;3.00;3.00;;;;;;;;5077737;27;45610;-69
2022/08/27 13:47:19;;;;;;;;;3.00;2.00;;;;;;;;5078311;28;45396;-69
2022/08/27 13:49:44;;;;;;;;;3.00;3.00;;;;;;;;5078072;28;45324;-69
2022/08/27 13:52:12;;;;;;;;;6.33;2.00;;;;;;;;5077746;28;45404;-70
2022/08/27 13:54:38;;;;;;;;;3.00;1.00;;;;;;;;5078044;28;45412;-70
2022/08/27 13:57:07;;;;;;;;;4.00;3.00;;;;;;;;5077922;28;45320;-69
2022/08/27 13:59:33;;;;;;;;;3.33;2.33;;;;;;;;5078042;28;45291;-69
2022/08/27 14:01:58;;;;;;;;;2.67;2.33;;;;;;;;5077144;27;47209;-70
2022/08/27 14:04:44;;;;;;;;;2.67;2.00;;;;;;;;5077605;28;45313;-70
2022/08/27 14:07:12;;;;;;;;;3.00;2.67;;;;;;;;5077011;28;45389;-69
2022/08/27 14:10:04;;;;;;;;;1.67;1.67;;;;;;;;5077962;28;45319;-69
2022/08/27 14:12:32;;;;;;;;;1.00;1.00;;;;;;;;5045607;28;45401;-68
2022/08/27 14:15:11;;;;;;;;;6.00;6.00;;;;;;;;5077359;28;45266;-69
2022/08/27 14:17:37;;;;;;;;;1.00;1.00;;;;;;;;5077749;28;45279;-70
2022/08/27 14:20:03;;;;;;;;;3.67;2.00;;;;;;;;5096483;27;45434;-69
2022/08/27 14:22:28;;;;;;;;;1.00;1.00;;;;;;;;5097945;27;46771;-70
2022/08/27 14:24:53;;;;;;;;;2.00;2.00;;;;;;;;5097999;27;45447;-69
2022/08/27 14:27:19;;;;;;;;;2.00;2.00;;;;;;;;5098176;27;45359;-69
2022/08/27 14:29:44;;;;;;;;;3.00;2.00;;;;;;;;5098240;27;45258;-69
2022/08/27 14:32:10;;;;;;;;;2.67;2.00;;;;;;;;5097995;27;46268;-70
2022/08/27 14:34:35;;;;;;;;;1.00;1.00;;;;;;;;5097744;27;45480;-70
2022/08/27 14:37:01;;;;;;;;;1.67;1.67;;;;;;;;5082198;27;45350;-70
2022/08/27 14:39:26;;;;;;;;;1.00;1.00;;;;;;;;5077564;28;45316;-69
2022/08/27 14:41:51;;;;;;;;;2.33;1.00;;;;;;;;5077283;28;45436;-69
2022/08/27 14:44:16;;;;;;;;;1.00;1.00;;;;;;;;5077357;28;45297;-69
2022/08/27 14:46:42;;;;;;;;;1.00;1.00;;;;;;;;5077489;27;45321;-70
2022/08/27 14:49:10;;;;;;;;;2.00;1.00;;;;;;;;5077681;28;45398;-70
2022/08/27 14:51:36;;;;;;;;;3.00;1.00;;;;;;;;5076760;27;46582;-69